sensor_id;sensor_type;location;lat;lon;timestamp;P1;durP1;ratioP1;P2;durP2;ratioP2
29384;SDS011;16367;48.736;9.218;2022-11-09T00:01:22;6.13;;;2.38;;
29384;SDS011;16367;48.736;9.218;2022-11-09T00:03:26;5.28;;;2.50;;
29384;SDS011;16367;48.736;9.218;2022-11-09T00:05:30;5.38;;;2.25;;
29384;SDS011;16367;48.736;9.218;2022-11-09T00:07:32;5.68;;;2.38;;
29384;SDS011;16367;48.736;9.218;2022-11-09T00:09:35;6.43;;;2.38;;
29384;SDS011;16367;48.736;9.218;2022-11-09T00:11:38;4.63;;;2.00;;
29384;SDS011;16367;48.736;9.218;2022-11-09T00:13:41;4.53;;;1.90;;
29384;SDS011;16367;48.736;9.218;2022-11-09T00:15:44;5.70;;;2.33;;
29384;SDS011;16367;48.736;9.218;2022-11-09T00:17:47;7.80;;;2.83;;
29384;SDS011;16367;48.736;9.218;2022-11-09T00:19:49;6.45;;;2.40;;
29384;SDS011;16367;48.736;9.218;2022-11-09T00:21:54;6.72;;;2.70;;
29384;SDS011;16367;48.736;9.218;2022-11-09T00:23:56;5.88;;;2.60;;
29384;SDS011;16367;48.736;9.218;2022-11-09T00:25:59;5.93;;;2.63;;
29384;SDS011;16367;48.736;9.218;2022-11-09T00:28:02;5.97;;;2.60;;
29384;SDS011;16367;48.736;9.218;2022-11-09T00:30:05;7.05;;;2.72;;
29384;SDS011;16367;48.736;9.218;2022-11-09T00:32:10;5.68;;;2.85;;
29384;SDS011;16367;48.736;9.218;2022-11-09T00:34:13;6.43;;;2.53;;
29384;SDS011;16367;48.736;9.218;2022-11-09T00:36:16;5.05;;;2.40;;
29384;SDS011;16367;48.736;9.218;2022-11-09T00:38:21;6.68;;;2.85;;
29384;SDS011;16367;48.736;9.218;2022-11-09T00:40:24;5.90;;;2.60;;
29384;SDS011;16367;48.736;9.218;2022-11-09T00:42:26;6.65;;;2.38;;
29384;SDS011;16367;48.736;9.218;2022-11-09T00:44:29;5.68;;;2.65;;
29384;SDS011;16367;48.736;9.218;2022-11-09T00:46:32;6.22;;;3.13;;
29384;SDS011;16367;48.736;9.218;2022-11-09T00:48:34;6.75;;;2.83;;
29384;SDS011;16367;48.736;9.218;2022-11-09T00:50:37;6.00;;;2.55;;
29384;SDS011;16367;48.736;9.218;2022-11-09T00:52:40;5.85;;;2.55;;
29384;SDS011;16367;48.736;9.218;2022-11-09T00:54:44;6.90;;;2.70;;
29384;SDS011;16367;48.736;9.218;2022-11-09T00:56:46;7.00;;;2.83;;
29384;SDS011;16367;48.736;9.218;2022-11-09T00:58:51;7.63;;;3.22;;
29384;SDS011;16367;48.736;9.218;2022-11-09T01:00:55;7.40;;;2.65;;
29384;SDS011;16367;48.736;9.218;2022-11-09T01:02:58;5.38;;;2.78;;
29384;SDS011;16367;48.736;9.218;2022-11-09T01:05:01;6.45;;;2.80;;
29384;SDS011;16367;48.736;9.218;2022-11-09T01:07:05;8.15;;;3.05;;
29384;SDS011;16367;48.736;9.218;2022-11-09T01:09:08;7.50;;;3.40;;
29384;SDS011;16367;48.736;9.218;2022-11-09T01:11:12;6.18;;;3.25;;
29384;SDS011;16367;48.736;9.218;2022-11-09T01:13:16;6.22;;;2.80;;
29384;SDS011;16367;48.736;9.218;2022-11-09T01:15:21;9.43;;;3.60;;
29384;SDS011;16367;48.736;9.218;2022-11-09T01:17:23;6.57;;;3.35;;
29384;SDS011;16367;48.736;9.218;2022-11-09T01:19:26;8.70;;;3.70;;
29384;SDS011;16367;48.736;9.218;2022-11-09T01:21:30;7.30;;;3.42;;
29384;SDS011;16367;48.736;9.218;2022-11-09T01:23:32;7.63;;;3.53;;
29384;SDS011;16367;48.736;9.218;2022-11-09T01:25:35;7.15;;;3.30;;
29384;SDS011;16367;48.736;9.218;2022-11-09T01:27:39;7.07;;;3.42;;
29384;SDS011;16367;48.736;9.218;2022-11-09T01:29:42;6.97;;;3.33;;
29384;SDS011;16367;48.736;9.218;2022-11-09T01:31:45;7.40;;;2.92;;
29384;SDS011;16367;48.736;9.218;2022-11-09T01:33:49;6.53;;;3.03;;
29384;SDS011;16367;48.736;9.218;2022-11-09T01:35:52;5.88;;;3.00;;
29384;SDS011;16367;48.736;9.218;2022-11-09T01:37:54;12.73;;;3.20;;
29384;SDS011;16367;48.736;9.218;2022-11-09T01:39:57;6.63;;;3.13;;
29384;SDS011;16367;48.736;9.218;2022-11-09T01:42:00;6.70;;;2.88;;
29384;SDS011;16367;48.736;9.218;2022-11-09T01:44:05;7.35;;;2.95;;
29384;SDS011;16367;48.736;9.218;2022-11-09T01:46:13;6.43;;;2.90;;
29384;SDS011;16367;48.736;9.218;2022-11-09T01:48:23;7.05;;;2.97;;
29384;SDS011;16367;48.736;9.218;2022-11-09T01:50:35;7.43;;;3.28;;
29384;SDS011;16367;48.736;9.218;2022-11-09T01:52:43;7.43;;;3.28;;
29384;SDS011;16367;48.736;9.218;2022-11-09T01:54:50;6.60;;;3.05;;
29384;SDS011;16367;48.736;9.218;2022-11-09T01:56:56;5.53;;;2.55;;
29384;SDS011;16367;48.736;9.218;2022-11-09T01:59:03;7.15;;;3.00;;
29384;SDS011;16367;48.736;9.218;2022-11-09T02:01:10;5.93;;;2.80;;
29384;SDS011;16367;48.736;9.218;2022-11-09T02:03:17;5.32;;;2.70;;
29384;SDS011;16367;48.736;9.218;2022-11-09T02:05:23;7.15;;;2.42;;
29384;SDS011;16367;48.736;9.218;2022-11-09T02:07:29;5.35;;;2.38;;
29384;SDS011;16367;48.736;9.218;2022-11-09T02:09:34;10.77;;;4.15;;
29384;SDS011;16367;48.736;9.218;2022-11-09T02:11:41;6.10;;;2.25;;
29384;SDS011;16367;48.736;9.218;2022-11-09T02:13:44;5.70;;;2.40;;
29384;SDS011;16367;48.736;9.218;2022-11-09T02:15:51;5.93;;;2.45;;
29384;SDS011;16367;48.736;9.218;2022-11-09T02:17:54;7.75;;;2.30;;
29384;SDS011;16367;48.736;9.218;2022-11-09T02:19:58;6.13;;;2.60;;
29384;SDS011;16367;48.736;9.218;2022-11-09T02:22:02;5.53;;;2.55;;
29384;SDS011;16367;48.736;9.218;2022-11-09T02:24:05;4.78;;;2.13;;
29384;SDS011;16367;48.736;9.218;2022-11-09T02:26:08;5.55;;;2.20;;
29384;SDS011;16367;48.736;9.218;2022-11-09T02:28:14;6.43;;;2.53;;
29384;SDS011;16367;48.736;9.218;2022-11-09T02:30:18;5.65;;;2.35;;
29384;SDS011;16367;48.736;9.218;2022-11-09T02:32:22;5.22;;;2.42;;
29384;SDS011;16367;48.736;9.218;2022-11-09T02:36:31;5.53;;;2.17;;
29384;SDS011;16367;48.736;9.218;2022-11-09T02:38:35;4.75;;;2.30;;
29384;SDS011;16367;48.736;9.218;2022-11-09T02:40:38;5.40;;;2.03;;
29384;SDS011;16367;48.736;9.218;2022-11-09T02:42:43;4.60;;;2.00;;
29384;SDS011;16367;48.736;9.218;2022-11-09T02:44:47;4.88;;;2.10;;
29384;SDS011;16367;48.736;9.218;2022-11-09T02:46:52;5.65;;;1.77;;
29384;SDS011;16367;48.736;9.218;2022-11-09T02:48:54;4.30;;;1.67;;
29384;SDS011;16367;48.736;9.218;2022-11-09T02:50:57;4.97;;;1.80;;
29384;SDS011;16367;48.736;9.218;2022-11-09T02:53:00;4.78;;;2.10;;
29384;SDS011;16367;48.736;9.218;2022-11-09T02:55:04;4.45;;;1.80;;
29384;SDS011;16367;48.736;9.218;2022-11-09T02:57:08;6.28;;;2.22;;
29384;SDS011;16367;48.736;9.218;2022-11-09T02:59:10;5.00;;;1.73;;
29384;SDS011;16367;48.736;9.218;2022-11-09T03:01:13;4.93;;;1.88;;
29384;SDS011;16367;48.736;9.218;2022-11-09T03:03:16;5.30;;;1.70;;
29384;SDS011;16367;48.736;9.218;2022-11-09T03:05:19;5.15;;;2.08;;
29384;SDS011;16367;48.736;9.218;2022-11-09T03:07:22;5.88;;;2.22;;
29384;SDS011;16367;48.736;9.218;2022-11-09T03:09:24;5.90;;;2.10;;
29384;SDS011;16367;48.736;9.218;2022-11-09T03:11:28;5.28;;;1.77;;
29384;SDS011;16367;48.736;9.218;2022-11-09T03:13:31;5.45;;;1.83;;
29384;SDS011;16367;48.736;9.218;2022-11-09T03:15:34;10.20;;;2.30;;
29384;SDS011;16367;48.736;9.218;2022-11-09T03:17:38;4.45;;;1.80;;
29384;SDS011;16367;48.736;9.218;2022-11-09T03:19:41;5.15;;;2.10;;
29384;SDS011;16367;48.736;9.218;2022-11-09T03:21:44;4.28;;;1.70;;
29384;SDS011;16367;48.736;9.218;2022-11-09T03:23:46;5.50;;;1.80;;
29384;SDS011;16367;48.736;9.218;2022-11-09T03:25:49;4.57;;;1.63;;
29384;SDS011;16367;48.736;9.218;2022-11-09T03:27:56;5.90;;;2.05;;
29384;SDS011;16367;48.736;9.218;2022-11-09T03:29:59;4.88;;;1.92;;
29384;SDS011;16367;48.736;9.218;2022-11-09T03:32:02;7.15;;;2.50;;
29384;SDS011;16367;48.736;9.218;2022-11-09T03:34:05;6.22;;;2.30;;
29384;SDS011;16367;48.736;9.218;2022-11-09T03:36:08;4.72;;;2.03;;
29384;SDS011;16367;48.736;9.218;2022-11-09T03:38:11;8.52;;;3.28;;
29384;SDS011;16367;48.736;9.218;2022-11-09T03:40:13;6.80;;;3.05;;
29384;SDS011;16367;48.736;9.218;2022-11-09T03:42:16;6.75;;;2.65;;
29384;SDS011;16367;48.736;9.218;2022-11-09T03:44:20;7.22;;;3.05;;
29384;SDS011;16367;48.736;9.218;2022-11-09T03:46:23;6.70;;;2.85;;
29384;SDS011;16367;48.736;9.218;2022-11-09T03:48:25;7.15;;;2.85;;
29384;SDS011;16367;48.736;9.218;2022-11-09T03:50:28;6.13;;;3.08;;
29384;SDS011;16367;48.736;9.218;2022-11-09T03:52:32;7.82;;;2.95;;
29384;SDS011;16367;48.736;9.218;2022-11-09T03:54:35;7.20;;;3.15;;
29384;SDS011;16367;48.736;9.218;2022-11-09T03:56:38;7.10;;;2.92;;
29384;SDS011;16367;48.736;9.218;2022-11-09T03:58:41;7.38;;;2.97;;
29384;SDS011;16367;48.736;9.218;2022-11-09T04:00:45;9.40;;;3.20;;
29384;SDS011;16367;48.736;9.218;2022-11-09T04:02:47;7.70;;;2.78;;
29384;SDS011;16367;48.736;9.218;2022-11-09T04:04:50;6.38;;;3.03;;
29384;SDS011;16367;48.736;9.218;2022-11-09T04:06:53;9.48;;;3.30;;
29384;SDS011;16367;48.736;9.218;2022-11-09T04:08:55;6.70;;;3.20;;
29384;SDS011;16367;48.736;9.218;2022-11-09T04:10:58;7.53;;;3.03;;
29384;SDS011;16367;48.736;9.218;2022-11-09T04:13:01;7.70;;;3.00;;
29384;SDS011;16367;48.736;9.218;2022-11-09T04:15:04;6.63;;;3.15;;
29384;SDS011;16367;48.736;9.218;2022-11-09T04:17:08;7.43;;;3.22;;
29384;SDS011;16367;48.736;9.218;2022-11-09T04:19:11;6.55;;;3.00;;
29384;SDS011;16367;48.736;9.218;2022-11-09T04:21:14;6.78;;;3.13;;
29384;SDS011;16367;48.736;9.218;2022-11-09T04:23:23;6.68;;;3.30;;
29384;SDS011;16367;48.736;9.218;2022-11-09T04:25:27;7.15;;;3.13;;
29384;SDS011;16367;48.736;9.218;2022-11-09T04:27:32;7.22;;;3.10;;
29384;SDS011;16367;48.736;9.218;2022-11-09T04:29:35;8.57;;;3.40;;
29384;SDS011;16367;48.736;9.218;2022-11-09T04:31:38;8.05;;;3.50;;
29384;SDS011;16367;48.736;9.218;2022-11-09T04:33:42;7.38;;;3.85;;
29384;SDS011;16367;48.736;9.218;2022-11-09T04:35:44;8.70;;;3.75;;
29384;SDS011;16367;48.736;9.218;2022-11-09T04:37:53;7.35;;;3.45;;
29384;SDS011;16367;48.736;9.218;2022-11-09T04:39:57;7.13;;;3.88;;
29384;SDS011;16367;48.736;9.218;2022-11-09T04:41:59;10.50;;;3.67;;
29384;SDS011;16367;48.736;9.218;2022-11-09T04:44:02;8.25;;;4.07;;
29384;SDS011;16367;48.736;9.218;2022-11-09T04:46:05;8.20;;;3.53;;
29384;SDS011;16367;48.736;9.218;2022-11-09T04:48:08;8.20;;;3.80;;
29384;SDS011;16367;48.736;9.218;2022-11-09T04:50:13;7.50;;;4.10;;
29384;SDS011;16367;48.736;9.218;2022-11-09T04:52:15;9.13;;;3.90;;
29384;SDS011;16367;48.736;9.218;2022-11-09T04:54:18;9.25;;;3.42;;
29384;SDS011;16367;48.736;9.218;2022-11-09T04:56:21;8.02;;;4.00;;
29384;SDS011;16367;48.736;9.218;2022-11-09T04:58:23;8.18;;;3.88;;
29384;SDS011;16367;48.736;9.218;2022-11-09T05:00:26;9.00;;;3.83;;
29384;SDS011;16367;48.736;9.218;2022-11-09T05:02:29;6.65;;;3.42;;
29384;SDS011;16367;48.736;9.218;2022-11-09T05:04:32;8.50;;;4.13;;
29384;SDS011;16367;48.736;9.218;2022-11-09T05:06:36;8.52;;;3.63;;
29384;SDS011;16367;48.736;9.218;2022-11-09T05:08:38;6.90;;;3.42;;
29384;SDS011;16367;48.736;9.218;2022-11-09T05:10:41;8.15;;;3.75;;
29384;SDS011;16367;48.736;9.218;2022-11-09T05:12:44;7.00;;;3.33;;
29384;SDS011;16367;48.736;9.218;2022-11-09T05:14:47;7.75;;;3.78;;
29384;SDS011;16367;48.736;9.218;2022-11-09T05:16:50;9.85;;;4.35;;
29384;SDS011;16367;48.736;9.218;2022-11-09T05:18:52;9.15;;;4.43;;
29384;SDS011;16367;48.736;9.218;2022-11-09T05:20:57;10.70;;;4.72;;
29384;SDS011;16367;48.736;9.218;2022-11-09T05:23:01;8.10;;;3.83;;
29384;SDS011;16367;48.736;9.218;2022-11-09T05:25:22;8.52;;;3.92;;
29384;SDS011;16367;48.736;9.218;2022-11-09T05:27:24;10.30;;;4.32;;
29384;SDS011;16367;48.736;9.218;2022-11-09T05:29:27;8.52;;;4.35;;
29384;SDS011;16367;48.736;9.218;2022-11-09T05:31:30;11.98;;;5.05;;
29384;SDS011;16367;48.736;9.218;2022-11-09T05:33:33;11.38;;;4.57;;
29384;SDS011;16367;48.736;9.218;2022-11-09T05:35:35;7.53;;;4.15;;
29384;SDS011;16367;48.736;9.218;2022-11-09T05:37:38;9.27;;;3.92;;
29384;SDS011;16367;48.736;9.218;2022-11-09T05:39:42;7.45;;;3.50;;
29384;SDS011;16367;48.736;9.218;2022-11-09T05:41:45;10.27;;;4.50;;
29384;SDS011;16367;48.736;9.218;2022-11-09T05:43:48;8.85;;;4.82;;
29384;SDS011;16367;48.736;9.218;2022-11-09T05:45:51;8.90;;;4.78;;
29384;SDS011;16367;48.736;9.218;2022-11-09T05:47:53;8.60;;;4.93;;
29384;SDS011;16367;48.736;9.218;2022-11-09T05:49:56;9.63;;;5.10;;
29384;SDS011;16367;48.736;9.218;2022-11-09T05:51:58;9.90;;;4.50;;
29384;SDS011;16367;48.736;9.218;2022-11-09T05:54:01;7.75;;;3.92;;
29384;SDS011;16367;48.736;9.218;2022-11-09T05:56:06;9.10;;;4.60;;
29384;SDS011;16367;48.736;9.218;2022-11-09T05:58:10;9.95;;;4.15;;
29384;SDS011;16367;48.736;9.218;2022-11-09T06:00:13;10.80;;;4.30;;
29384;SDS011;16367;48.736;9.218;2022-11-09T06:02:17;11.32;;;5.00;;
29384;SDS011;16367;48.736;9.218;2022-11-09T06:04:20;12.30;;;5.35;;
29384;SDS011;16367;48.736;9.218;2022-11-09T06:06:23;9.68;;;4.90;;
29384;SDS011;16367;48.736;9.218;2022-11-09T06:08:25;7.63;;;3.60;;
29384;SDS011;16367;48.736;9.218;2022-11-09T06:10:28;7.90;;;4.28;;
29384;SDS011;16367;48.736;9.218;2022-11-09T06:12:32;10.43;;;5.13;;
29384;SDS011;16367;48.736;9.218;2022-11-09T06:14:34;13.23;;;5.53;;
29384;SDS011;16367;48.736;9.218;2022-11-09T06:16:37;10.07;;;5.40;;
29384;SDS011;16367;48.736;9.218;2022-11-09T06:18:40;13.85;;;6.05;;
29384;SDS011;16367;48.736;9.218;2022-11-09T06:20:42;11.70;;;5.38;;
29384;SDS011;16367;48.736;9.218;2022-11-09T06:22:51;8.63;;;4.75;;
29384;SDS011;16367;48.736;9.218;2022-11-09T06:25:03;11.40;;;5.00;;
29384;SDS011;16367;48.736;9.218;2022-11-09T06:27:06;10.25;;;5.28;;
29384;SDS011;16367;48.736;9.218;2022-11-09T06:29:10;9.57;;;4.65;;
29384;SDS011;16367;48.736;9.218;2022-11-09T06:31:13;10.70;;;5.47;;
29384;SDS011;16367;48.736;9.218;2022-11-09T06:33:17;12.95;;;6.20;;
29384;SDS011;16367;48.736;9.218;2022-11-09T06:35:20;10.85;;;5.07;;
29384;SDS011;16367;48.736;9.218;2022-11-09T06:37:23;10.65;;;5.63;;
29384;SDS011;16367;48.736;9.218;2022-11-09T06:39:25;9.05;;;4.93;;
29384;SDS011;16367;48.736;9.218;2022-11-09T06:41:28;11.23;;;5.80;;
29384;SDS011;16367;48.736;9.218;2022-11-09T06:43:31;9.43;;;4.97;;
29384;SDS011;16367;48.736;9.218;2022-11-09T06:45:35;9.55;;;5.53;;
29384;SDS011;16367;48.736;9.218;2022-11-09T06:47:37;9.90;;;5.22;;
29384;SDS011;16367;48.736;9.218;2022-11-09T06:49:40;10.10;;;4.90;;
29384;SDS011;16367;48.736;9.218;2022-11-09T06:51:43;11.07;;;5.30;;
29384;SDS011;16367;48.736;9.218;2022-11-09T06:53:45;10.52;;;6.43;;
29384;SDS011;16367;48.736;9.218;2022-11-09T06:55:48;11.40;;;5.68;;
29384;SDS011;16367;48.736;9.218;2022-11-09T06:57:51;12.50;;;6.68;;
29384;SDS011;16367;48.736;9.218;2022-11-09T06:59:54;11.20;;;5.68;;
29384;SDS011;16367;48.736;9.218;2022-11-09T07:01:58;10.50;;;5.20;;
29384;SDS011;16367;48.736;9.218;2022-11-09T07:04:02;12.35;;;6.22;;
29384;SDS011;16367;48.736;9.218;2022-11-09T07:06:05;11.07;;;5.85;;
29384;SDS011;16367;48.736;9.218;2022-11-09T07:08:09;11.23;;;6.45;;
29384;SDS011;16367;48.736;9.218;2022-11-09T07:10:12;10.90;;;5.68;;
29384;SDS011;16367;48.736;9.218;2022-11-09T07:12:14;8.95;;;5.18;;
29384;SDS011;16367;48.736;9.218;2022-11-09T07:14:17;9.57;;;5.30;;
29384;SDS011;16367;48.736;9.218;2022-11-09T07:16:20;10.57;;;5.90;;
29384;SDS011;16367;48.736;9.218;2022-11-09T07:18:24;9.13;;;5.43;;
29384;SDS011;16367;48.736;9.218;2022-11-09T07:20:27;11.18;;;5.65;;
29384;SDS011;16367;48.736;9.218;2022-11-09T07:22:30;9.43;;;5.35;;
29384;SDS011;16367;48.736;9.218;2022-11-09T07:24:34;12.35;;;6.35;;
29384;SDS011;16367;48.736;9.218;2022-11-09T07:26:37;13.70;;;6.40;;
29384;SDS011;16367;48.736;9.218;2022-11-09T07:28:40;10.57;;;5.00;;
29384;SDS011;16367;48.736;9.218;2022-11-09T07:30:43;9.65;;;4.85;;
29384;SDS011;16367;48.736;9.218;2022-11-09T07:32:46;8.38;;;4.90;;
29384;SDS011;16367;48.736;9.218;2022-11-09T07:35:10;12.18;;;4.22;;
29384;SDS011;16367;48.736;9.218;2022-11-09T07:37:13;11.82;;;5.22;;
29384;SDS011;16367;48.736;9.218;2022-11-09T07:39:15;9.55;;;4.55;;
29384;SDS011;16367;48.736;9.218;2022-11-09T07:41:18;10.77;;;4.38;;
29384;SDS011;16367;48.736;9.218;2022-11-09T07:43:21;8.40;;;3.35;;
29384;SDS011;16367;48.736;9.218;2022-11-09T07:45:23;5.90;;;2.30;;
29384;SDS011;16367;48.736;9.218;2022-11-09T07:47:26;6.20;;;2.30;;
29384;SDS011;16367;48.736;9.218;2022-11-09T07:49:29;5.72;;;2.97;;
29384;SDS011;16367;48.736;9.218;2022-11-09T07:51:34;4.20;;;1.98;;
29384;SDS011;16367;48.736;9.218;2022-11-09T07:53:37;6.28;;;2.53;;
29384;SDS011;16367;48.736;9.218;2022-11-09T07:55:40;6.10;;;2.47;;
29384;SDS011;16367;48.736;9.218;2022-11-09T07:57:43;6.55;;;2.83;;
29384;SDS011;16367;48.736;9.218;2022-11-09T07:59:47;5.63;;;2.50;;
29384;SDS011;16367;48.736;9.218;2022-11-09T08:01:51;7.20;;;3.15;;
29384;SDS011;16367;48.736;9.218;2022-11-09T08:03:54;4.97;;;2.72;;
29384;SDS011;16367;48.736;9.218;2022-11-09T08:05:57;6.40;;;3.00;;
29384;SDS011;16367;48.736;9.218;2022-11-09T08:08:02;5.82;;;2.88;;
29384;SDS011;16367;48.736;9.218;2022-11-09T08:10:06;6.38;;;2.70;;
29384;SDS011;16367;48.736;9.218;2022-11-09T08:12:09;5.65;;;3.00;;
29384;SDS011;16367;48.736;9.218;2022-11-09T08:14:12;7.47;;;3.60;;
29384;SDS011;16367;48.736;9.218;2022-11-09T08:16:15;7.63;;;3.38;;
29384;SDS011;16367;48.736;9.218;2022-11-09T08:18:18;7.80;;;3.70;;
29384;SDS011;16367;48.736;9.218;2022-11-09T08:20:23;10.48;;;3.75;;
29384;SDS011;16367;48.736;9.218;2022-11-09T08:22:25;8.77;;;3.70;;
29384;SDS011;16367;48.736;9.218;2022-11-09T08:24:29;7.57;;;3.75;;
29384;SDS011;16367;48.736;9.218;2022-11-09T08:26:32;9.77;;;4.30;;
29384;SDS011;16367;48.736;9.218;2022-11-09T08:28:35;7.68;;;3.30;;
29384;SDS011;16367;48.736;9.218;2022-11-09T08:30:38;6.40;;;3.83;;
29384;SDS011;16367;48.736;9.218;2022-11-09T08:32:40;7.22;;;3.33;;
29384;SDS011;16367;48.736;9.218;2022-11-09T08:34:45;6.63;;;3.13;;
29384;SDS011;16367;48.736;9.218;2022-11-09T08:36:48;7.65;;;3.83;;
29384;SDS011;16367;48.736;9.218;2022-11-09T08:38:51;9.30;;;3.53;;
29384;SDS011;16367;48.736;9.218;2022-11-09T08:40:58;7.35;;;3.00;;
29384;SDS011;16367;48.736;9.218;2022-11-09T08:43:01;7.32;;;2.78;;
29384;SDS011;16367;48.736;9.218;2022-11-09T08:45:05;6.35;;;3.10;;
29384;SDS011;16367;48.736;9.218;2022-11-09T08:47:08;7.28;;;3.50;;
29384;SDS011;16367;48.736;9.218;2022-11-09T08:49:11;5.43;;;2.75;;
29384;SDS011;16367;48.736;9.218;2022-11-09T08:51:14;5.85;;;3.42;;
29384;SDS011;16367;48.736;9.218;2022-11-09T08:53:17;5.93;;;2.92;;
29384;SDS011;16367;48.736;9.218;2022-11-09T08:55:19;8.38;;;3.10;;
29384;SDS011;16367;48.736;9.218;2022-11-09T08:57:23;8.07;;;3.63;;
29384;SDS011;16367;48.736;9.218;2022-11-09T08:59:27;8.20;;;2.97;;
29384;SDS011;16367;48.736;9.218;2022-11-09T09:01:30;9.05;;;2.88;;
29384;SDS011;16367;48.736;9.218;2022-11-09T09:03:32;6.43;;;2.90;;
29384;SDS011;16367;48.736;9.218;2022-11-09T09:05:35;6.38;;;2.85;;
29384;SDS011;16367;48.736;9.218;2022-11-09T09:07:38;6.43;;;2.75;;
29384;SDS011;16367;48.736;9.218;2022-11-09T09:09:40;5.72;;;2.90;;
29384;SDS011;16367;48.736;9.218;2022-11-09T09:11:43;4.65;;;2.30;;
29384;SDS011;16367;48.736;9.218;2022-11-09T09:13:47;4.97;;;2.00;;
29384;SDS011;16367;48.736;9.218;2022-11-09T09:15:50;4.93;;;2.30;;
29384;SDS011;16367;48.736;9.218;2022-11-09T09:17:52;5.18;;;1.88;;
29384;SDS011;16367;48.736;9.218;2022-11-09T09:19:55;4.32;;;1.65;;
29384;SDS011;16367;48.736;9.218;2022-11-09T09:21:59;6.20;;;2.60;;
29384;SDS011;16367;48.736;9.218;2022-11-09T09:24:02;4.85;;;2.15;;
29384;SDS011;16367;48.736;9.218;2022-11-09T09:26:05;6.35;;;3.20;;
29384;SDS011;16367;48.736;9.218;2022-11-09T09:28:08;6.65;;;3.47;;
29384;SDS011;16367;48.736;9.218;2022-11-09T09:30:12;6.70;;;3.40;;
29384;SDS011;16367;48.736;9.218;2022-11-09T09:32:15;8.18;;;3.55;;
29384;SDS011;16367;48.736;9.218;2022-11-09T09:34:18;7.13;;;3.08;;
29384;SDS011;16367;48.736;9.218;2022-11-09T09:36:21;7.38;;;3.55;;
29384;SDS011;16367;48.736;9.218;2022-11-09T09:38:25;8.02;;;3.08;;
29384;SDS011;16367;48.736;9.218;2022-11-09T09:40:29;7.60;;;2.78;;
29384;SDS011;16367;48.736;9.218;2022-11-09T09:42:35;5.68;;;2.30;;
29384;SDS011;16367;48.736;9.218;2022-11-09T09:44:39;6.97;;;3.47;;
29384;SDS011;16367;48.736;9.218;2022-11-09T09:46:50;5.95;;;3.03;;
29384;SDS011;16367;48.736;9.218;2022-11-09T09:48:59;4.93;;;2.22;;
29384;SDS011;16367;48.736;9.218;2022-11-09T09:53:13;5.78;;;1.80;;
29384;SDS011;16367;48.736;9.218;2022-11-09T09:55:26;4.75;;;2.00;;
29384;SDS011;16367;48.736;9.218;2022-11-09T09:57:35;4.25;;;1.83;;
29384;SDS011;16367;48.736;9.218;2022-11-09T09:59:42;5.57;;;2.30;;
29384;SDS011;16367;48.736;9.218;2022-11-09T10:01:50;4.40;;;2.00;;
29384;SDS011;16367;48.736;9.218;2022-11-09T10:03:57;6.18;;;2.17;;
29384;SDS011;16367;48.736;9.218;2022-11-09T10:06:03;5.05;;;2.10;;
29384;SDS011;16367;48.736;9.218;2022-11-09T10:08:18;5.07;;;1.98;;
29384;SDS011;16367;48.736;9.218;2022-11-09T10:10:32;5.80;;;2.30;;
29384;SDS011;16367;48.736;9.218;2022-11-09T10:12:48;6.65;;;2.03;;
29384;SDS011;16367;48.736;9.218;2022-11-09T10:15:12;4.75;;;2.08;;
29384;SDS011;16367;48.736;9.218;2022-11-09T10:17:23;4.50;;;1.92;;
29384;SDS011;16367;48.736;9.218;2022-11-09T10:19:41;5.75;;;2.10;;
29384;SDS011;16367;48.736;9.218;2022-11-09T10:21:57;6.95;;;2.20;;
29384;SDS011;16367;48.736;9.218;2022-11-09T10:24:13;5.00;;;2.20;;
29384;SDS011;16367;48.736;9.218;2022-11-09T10:26:28;4.72;;;2.50;;
29384;SDS011;16367;48.736;9.218;2022-11-09T10:28:40;5.72;;;2.20;;
29384;SDS011;16367;48.736;9.218;2022-11-09T10:31:04;6.07;;;2.50;;
29384;SDS011;16367;48.736;9.218;2022-11-09T10:33:18;4.75;;;2.22;;
29384;SDS011;16367;48.736;9.218;2022-11-09T10:35:23;5.25;;;2.05;;
29384;SDS011;16367;48.736;9.218;2022-11-09T10:37:31;5.15;;;1.75;;
29384;SDS011;16367;48.736;9.218;2022-11-09T10:39:39;4.35;;;1.80;;
29384;SDS011;16367;48.736;9.218;2022-11-09T10:43:47;4.55;;;1.70;;
29384;SDS011;16367;48.736;9.218;2022-11-09T10:45:56;5.78;;;1.90;;
29384;SDS011;16367;48.736;9.218;2022-11-09T10:48:05;5.60;;;2.20;;
29384;SDS011;16367;48.736;9.218;2022-11-09T10:50:16;4.43;;;2.10;;
29384;SDS011;16367;48.736;9.218;2022-11-09T10:52:29;4.47;;;2.00;;
29384;SDS011;16367;48.736;9.218;2022-11-09T10:54:46;3.63;;;1.60;;
29384;SDS011;16367;48.736;9.218;2022-11-09T10:56:49;4.90;;;1.90;;
29384;SDS011;16367;48.736;9.218;2022-11-09T11:01:39;5.40;;;1.90;;
29384;SDS011;16367;48.736;9.218;2022-11-09T11:03:42;6.32;;;1.90;;
29384;SDS011;16367;48.736;9.218;2022-11-09T11:05:46;7.15;;;2.33;;
29384;SDS011;16367;48.736;9.218;2022-11-09T11:10:25;4.90;;;1.80;;
29384;SDS011;16367;48.736;9.218;2022-11-09T11:12:27;7.05;;;1.77;;
29384;SDS011;16367;48.736;9.218;2022-11-09T11:14:31;4.57;;;1.50;;
29384;SDS011;16367;48.736;9.218;2022-11-09T11:16:35;3.83;;;1.63;;
29384;SDS011;16367;48.736;9.218;2022-11-09T11:18:41;5.40;;;1.65;;
29384;SDS011;16367;48.736;9.218;2022-11-09T11:20:48;4.78;;;1.70;;
29384;SDS011;16367;48.736;9.218;2022-11-09T11:23:10;4.03;;;1.70;;
29384;SDS011;16367;48.736;9.218;2022-11-09T11:25:16;4.35;;;1.65;;
29384;SDS011;16367;48.736;9.218;2022-11-09T11:27:22;4.25;;;1.65;;
29384;SDS011;16367;48.736;9.218;2022-11-09T11:29:34;4.97;;;1.60;;
29384;SDS011;16367;48.736;9.218;2022-11-09T11:31:42;3.90;;;1.35;;
29384;SDS011;16367;48.736;9.218;2022-11-09T11:33:45;5.35;;;1.83;;
29384;SDS011;16367;48.736;9.218;2022-11-09T11:35:52;4.85;;;1.60;;
29384;SDS011;16367;48.736;9.218;2022-11-09T11:38:04;5.60;;;1.50;;
29384;SDS011;16367;48.736;9.218;2022-11-09T11:40:16;3.97;;;1.48;;
29384;SDS011;16367;48.736;9.218;2022-11-09T11:42:29;4.55;;;1.60;;
29384;SDS011;16367;48.736;9.218;2022-11-09T11:44:55;3.88;;;1.73;;
29384;SDS011;16367;48.736;9.218;2022-11-09T11:47:31;4.03;;;1.63;;
29384;SDS011;16367;48.736;9.218;2022-11-09T11:49:45;4.15;;;1.40;;
29384;SDS011;16367;48.736;9.218;2022-11-09T11:52:03;4.28;;;1.60;;
29384;SDS011;16367;48.736;9.218;2022-11-09T11:54:12;3.80;;;1.42;;
29384;SDS011;16367;48.736;9.218;2022-11-09T11:56:25;9.23;;;1.77;;
29384;SDS011;16367;48.736;9.218;2022-11-09T11:58:36;5.10;;;1.90;;
29384;SDS011;16367;48.736;9.218;2022-11-09T12:00:55;4.10;;;1.90;;
29384;SDS011;16367;48.736;9.218;2022-11-09T12:03:13;3.78;;;1.55;;
29384;SDS011;16367;48.736;9.218;2022-11-09T12:05:37;3.55;;;1.38;;
29384;SDS011;16367;48.736;9.218;2022-11-09T12:07:58;4.57;;;1.77;;
29384;SDS011;16367;48.736;9.218;2022-11-09T12:10:15;4.80;;;1.80;;
29384;SDS011;16367;48.736;9.218;2022-11-09T12:12:33;4.95;;;1.65;;
29384;SDS011;16367;48.736;9.218;2022-11-09T12:14:48;5.47;;;1.90;;
29384;SDS011;16367;48.736;9.218;2022-11-09T12:17:00;4.50;;;1.90;;
29384;SDS011;16367;48.736;9.218;2022-11-09T12:19:21;4.97;;;1.77;;
29384;SDS011;16367;48.736;9.218;2022-11-09T12:21:37;4.55;;;1.70;;
29384;SDS011;16367;48.736;9.218;2022-11-09T12:23:51;6.68;;;2.08;;
29384;SDS011;16367;48.736;9.218;2022-11-09T12:26:08;4.10;;;1.65;;
29384;SDS011;16367;48.736;9.218;2022-11-09T12:28:28;3.40;;;1.50;;
29384;SDS011;16367;48.736;9.218;2022-11-09T12:30:48;5.53;;;1.77;;
29384;SDS011;16367;48.736;9.218;2022-11-09T12:33:01;4.78;;;1.85;;
29384;SDS011;16367;48.736;9.218;2022-11-09T12:35:16;3.92;;;1.50;;
29384;SDS011;16367;48.736;9.218;2022-11-09T12:37:23;4.15;;;1.63;;
29384;SDS011;16367;48.736;9.218;2022-11-09T12:39:35;4.10;;;1.58;;
29384;SDS011;16367;48.736;9.218;2022-11-09T12:41:41;4.07;;;1.70;;
29384;SDS011;16367;48.736;9.218;2022-11-09T12:43:46;4.15;;;1.40;;
29384;SDS011;16367;48.736;9.218;2022-11-09T12:45:53;4.90;;;1.70;;